PDA1301 LROP-LTAI
Flight info
| Callsign | PDA1301 |
|---|---|
| Flight time | 1h 32m |
| Altitude | 29000 |
| Route | IDARU DCT NONQE/N0452F330 DCT MAXOV DCT MATEL L620 RIXEN/N0452F350 UL620 IST UN616 OVACI UT69 BABSA |
| Aircraft | B738/M-SDE2E3FGHIRWXY/LB1 |
Departure
| Time | 2026-05-04 13:16 |
|---|---|
| Airport | Bucharest Henri Coandă International Airport (LROP) |
Arrival
| Time | 2026-05-04 14:48 |
|---|---|
| Airport | Antalya International Airport (LTAI) |
| Time | Latitude | Longitude | Altitude | Speed | Heading |
|---|---|---|---|---|---|
| 2026-05-04 12:21 | 44.57056 | 26.08257 | 319 ft | 0 kts | 276° |
| 2026-05-04 12:55 | 44.57056 | 26.08261 | 319 ft | 3 kts | 276° |
| 2026-05-04 12:56 | 44.57054 | 26.08287 | 318 ft | 3 kts | 276° |
| 2026-05-04 12:56 | 44.57052 | 26.08313 | 317 ft | 3 kts | 276° |
| 2026-05-04 12:56 | 44.57050 | 26.08339 | 316 ft | 3 kts | 276° |
| 2026-05-04 12:56 | 44.57049 | 26.08365 | 316 ft | 3 kts | 239° |
| 2026-05-04 12:57 | 44.57062 | 26.08380 | 318 ft | 1 kts | 183° |
| 2026-05-04 13:07 | 44.57058 | 26.08380 | 319 ft | 1 kts | 181° |
| 2026-05-04 13:07 | 44.57046 | 26.08381 | 319 ft | 2 kts | 173° |
| 2026-05-04 13:08 | 44.57028 | 26.08385 | 318 ft | 3 kts | 173° |
| 2026-05-04 13:08 | 44.57002 | 26.08389 | 318 ft | 4 kts | 173° |
| 2026-05-04 13:08 | 44.56969 | 26.08394 | 319 ft | 5 kts | 175° |
| 2026-05-04 13:08 | 44.56932 | 26.08399 | 319 ft | 6 kts | 174° |
| 2026-05-04 13:09 | 44.56890 | 26.08391 | 319 ft | 6 kts | 214° |
| 2026-05-04 13:09 | 44.56861 | 26.08338 | 319 ft | 7 kts | 243° |
| 2026-05-04 13:09 | 44.56837 | 26.08272 | 319 ft | 8 kts | 242° |
| 2026-05-04 13:09 | 44.56808 | 26.08202 | 319 ft | 9 kts | 239° |
| 2026-05-04 13:10 | 44.56782 | 26.08125 | 318 ft | 9 kts | 244° |
| 2026-05-04 13:10 | 44.56763 | 26.08038 | 319 ft | 10 kts | 256° |
| 2026-05-04 13:10 | 44.56745 | 26.07947 | 318 ft | 10 kts | 255° |
| 2026-05-04 13:10 | 44.56728 | 26.07857 | 319 ft | 9 kts | 255° |
| 2026-05-04 13:11 | 44.56710 | 26.07770 | 319 ft | 9 kts | 255° |
| 2026-05-04 13:11 | 44.56686 | 26.07684 | 319 ft | 10 kts | 225° |
| 2026-05-04 13:11 | 44.56621 | 26.07668 | 319 ft | 10 kts | 173° |
| 2026-05-04 13:11 | 44.56604 | 26.07671 | 319 ft | 0 kts | 174° |
| 2026-05-04 13:14 | 44.56598 | 26.07672 | 318 ft | 1 kts | 173° |
| 2026-05-04 13:14 | 44.56583 | 26.07674 | 319 ft | 3 kts | 173° |
| 2026-05-04 13:14 | 44.56556 | 26.07679 | 319 ft | 5 kts | 173° |
| 2026-05-04 13:15 | 44.56517 | 26.07686 | 318 ft | 7 kts | 173° |
| 2026-05-04 13:15 | 44.56476 | 26.07720 | 318 ft | 7 kts | 118° |
| 2026-05-04 13:15 | 44.56475 | 26.07790 | 317 ft | 8 kts | 84° |
| 2026-05-04 13:15 | 44.56510 | 26.08262 | 322 ft | 93 kts | 84° |
| 2026-05-04 13:16 | 44.56600 | 26.09535 | 339 ft | 165 kts | 85° |
| 2026-05-04 13:16 | 44.56697 | 26.11268 | 1044 ft | 183 kts | 86° |
| 2026-05-04 13:16 | 44.56800 | 26.13065 | 2160 ft | 186 kts | 83° |
| 2026-05-04 13:16 | 44.56935 | 26.14895 | 3222 ft | 189 kts | 82° |
| 2026-05-04 13:17 | 44.57068 | 26.16650 | 3531 ft | 179 kts | 81° |
| 2026-05-04 13:17 | 44.57221 | 26.18607 | 3406 ft | 227 kts | 82° |
| 2026-05-04 13:17 | 44.57403 | 26.20968 | 3608 ft | 255 kts | 82° |
| 2026-05-04 13:17 | 44.57593 | 26.23464 | 4404 ft | 256 kts | 80° |
| 2026-05-04 13:18 | 44.57776 | 26.25913 | 5369 ft | 250 kts | 79° |
| 2026-05-04 13:18 | 44.57960 | 26.28363 | 6113 ft | 255 kts | 78° |
| 2026-05-04 13:18 | 44.58145 | 26.30838 | 6940 ft | 252 kts | 78° |
| 2026-05-04 13:18 | 44.58326 | 26.33267 | 7628 ft | 256 kts | 78° |
| 2026-05-04 13:19 | 44.58517 | 26.35807 | 8315 ft | 260 kts | 78° |
| 2026-05-04 13:19 | 44.58704 | 26.38306 | 9049 ft | 262 kts | 78° |
| 2026-05-04 13:19 | 44.58893 | 26.40858 | 9794 ft | 264 kts | 78° |
| 2026-05-04 13:19 | 44.59084 | 26.43434 | 10456 ft | 267 kts | 78° |
| 2026-05-04 13:20 | 44.59276 | 26.46041 | 11116 ft | 270 kts | 79° |
| 2026-05-04 13:20 | 44.59468 | 26.48660 | 11822 ft | 271 kts | 79° |
| 2026-05-04 13:20 | 44.59662 | 26.51305 | 12544 ft | 273 kts | 79° |
| 2026-05-04 13:20 | 44.59857 | 26.53979 | 13267 ft | 276 kts | 79° |
| 2026-05-04 13:21 | 44.60053 | 26.56667 | 14020 ft | 278 kts | 80° |
| 2026-05-04 13:21 | 44.60250 | 26.59384 | 14662 ft | 282 kts | 80° |
| 2026-05-04 13:21 | 44.60448 | 26.62114 | 15264 ft | 287 kts | 80° |
| 2026-05-04 13:21 | 44.60652 | 26.64948 | 15927 ft | 290 kts | 80° |
| 2026-05-04 13:22 | 44.60856 | 26.67791 | 16543 ft | 295 kts | 80° |
| 2026-05-04 13:22 | 44.61064 | 26.70686 | 17139 ft | 300 kts | 80° |
| 2026-05-04 13:22 | 44.61271 | 26.73579 | 17742 ft | 305 kts | 80° |
| 2026-05-04 13:22 | 44.61483 | 26.76567 | 18347 ft | 310 kts | 80° |
| 2026-05-04 13:23 | 44.61698 | 26.79603 | 18884 ft | 314 kts | 81° |
| 2026-05-04 13:23 | 44.61930 | 26.82655 | 19450 ft | 316 kts | 78° |
| 2026-05-04 13:23 | 44.62311 | 26.85704 | 19989 ft | 318 kts | 76° |
| 2026-05-04 13:23 | 44.62738 | 26.88771 | 20518 ft | 322 kts | 76° |
| 2026-05-04 13:24 | 44.63162 | 26.91874 | 21075 ft | 325 kts | 77° |
| 2026-05-04 13:24 | 44.63292 | 26.95071 | 21554 ft | 335 kts | 97° |
| 2026-05-04 13:24 | 44.62518 | 26.98172 | 22086 ft | 344 kts | 118° |
| 2026-05-04 13:25 | 44.58933 | 27.02688 | 23195 ft | 356 kts | 146° |
| 2026-05-04 13:25 | 44.56802 | 27.04486 | 23709 ft | 359 kts | 147° |
| 2026-05-04 13:25 | 44.54638 | 27.06262 | 24155 ft | 361 kts | 147° |
| 2026-05-04 13:25 | 44.52467 | 27.08041 | 24628 ft | 363 kts | 147° |
| 2026-05-04 13:26 | 44.50284 | 27.09841 | 25098 ft | 364 kts | 147° |
| 2026-05-04 13:26 | 44.48097 | 27.11657 | 25545 ft | 366 kts | 147° |
| 2026-05-04 13:26 | 44.45908 | 27.13485 | 25991 ft | 368 kts | 147° |
| 2026-05-04 13:26 | 44.43703 | 27.15331 | 26439 ft | 370 kts | 147° |
| 2026-05-04 13:27 | 44.41492 | 27.17186 | 26911 ft | 370 kts | 147° |
| 2026-05-04 13:27 | 44.39278 | 27.19043 | 27371 ft | 372 kts | 147° |
| 2026-05-04 13:27 | 44.37052 | 27.20912 | 27743 ft | 375 kts | 147° |
| 2026-05-04 13:27 | 44.34821 | 27.22782 | 28140 ft | 378 kts | 147° |
| 2026-05-04 13:28 | 44.32561 | 27.24676 | 28550 ft | 379 kts | 147° |
| 2026-05-04 13:28 | 44.30293 | 27.26573 | 28959 ft | 381 kts | 147° |
| 2026-05-04 13:28 | 44.28015 | 27.28479 | 29343 ft | 383 kts | 147° |
| 2026-05-04 13:28 | 44.25724 | 27.30392 | 29718 ft | 385 kts | 147° |
| 2026-05-04 13:29 | 44.23387 | 27.32343 | 30085 ft | 387 kts | 147° |
| 2026-05-04 13:29 | 44.21103 | 27.34247 | 30389 ft | 389 kts | 147° |
| 2026-05-04 13:29 | 44.18776 | 27.36186 | 30726 ft | 390 kts | 147° |
| 2026-05-04 13:29 | 44.16410 | 27.38155 | 31093 ft | 390 kts | 147° |
| 2026-05-04 13:30 | 44.14108 | 27.40070 | 31388 ft | 392 kts | 147° |
| 2026-05-04 13:30 | 44.11760 | 27.42020 | 31668 ft | 394 kts | 147° |
| 2026-05-04 13:30 | 44.09394 | 27.43984 | 31960 ft | 395 kts | 147° |
| 2026-05-04 13:30 | 44.07031 | 27.45943 | 32259 ft | 396 kts | 147° |
| 2026-05-04 13:31 | 44.04658 | 27.47909 | 32550 ft | 398 kts | 147° |
| 2026-05-04 13:31 | 44.02282 | 27.49877 | 32824 ft | 399 kts | 147° |
| 2026-05-04 13:31 | 43.99900 | 27.51848 | 33091 ft | 400 kts | 147° |
| 2026-05-04 13:31 | 43.97489 | 27.53839 | 33354 ft | 402 kts | 147° |
| 2026-05-04 13:32 | 43.95090 | 27.55819 | 33597 ft | 403 kts | 147° |
| 2026-05-04 13:32 | 43.92666 | 27.57819 | 33824 ft | 406 kts | 147° |
| 2026-05-04 13:32 | 43.90231 | 27.59828 | 34096 ft | 406 kts | 147° |
| 2026-05-04 13:32 | 43.87794 | 27.61838 | 34302 ft | 407 kts | 147° |
| 2026-05-04 13:33 | 43.85355 | 27.63848 | 34473 ft | 409 kts | 147° |
| 2026-05-04 13:33 | 43.82891 | 27.65877 | 34638 ft | 412 kts | 147° |
| 2026-05-04 13:33 | 43.80431 | 27.67901 | 34820 ft | 413 kts | 147° |
| 2026-05-04 13:33 | 43.77954 | 27.69936 | 35009 ft | 415 kts | 147° |
| 2026-05-04 13:34 | 43.75499 | 27.71952 | 35178 ft | 416 kts | 147° |
| 2026-05-04 13:34 | 43.73008 | 27.73995 | 35333 ft | 418 kts | 147° |
| 2026-05-04 13:34 | 43.70490 | 27.76059 | 35442 ft | 422 kts | 147° |
| 2026-05-04 13:34 | 43.67963 | 27.78128 | 35583 ft | 423 kts | 147° |
| 2026-05-04 13:35 | 43.65427 | 27.80202 | 35795 ft | 424 kts | 147° |
| 2026-05-04 13:35 | 43.60571 | 27.84777 | 36100 ft | 423 kts | 135° |
| 2026-05-04 13:35 | 43.58577 | 27.87741 | 36238 ft | 421 kts | 126° |
| 2026-05-04 13:36 | 43.56765 | 27.90934 | 36390 ft | 422 kts | 126° |
| 2026-05-04 13:36 | 43.54967 | 27.94152 | 36535 ft | 424 kts | 126° |
| 2026-05-04 13:36 | 43.53169 | 27.97372 | 36678 ft | 425 kts | 125° |
| 2026-05-04 13:36 | 43.51351 | 28.00606 | 36781 ft | 427 kts | 126° |
| 2026-05-04 13:37 | 43.49522 | 28.03838 | 36923 ft | 428 kts | 126° |
| 2026-05-04 13:37 | 43.45834 | 28.10304 | 37022 ft | 432 kts | 126° |
| 2026-05-04 13:38 | 43.42086 | 28.16840 | 37036 ft | 438 kts | 126° |
| 2026-05-04 13:38 | 43.38276 | 28.23466 | 37032 ft | 445 kts | 126° |
| 2026-05-04 13:39 | 43.34446 | 28.30112 | 37027 ft | 448 kts | 126° |
| 2026-05-04 13:39 | 43.30558 | 28.36845 | 37021 ft | 450 kts | 126° |
| 2026-05-04 13:40 | 43.26659 | 28.43581 | 37018 ft | 451 kts | 126° |
| 2026-05-04 13:40 | 43.22753 | 28.50314 | 37020 ft | 451 kts | 126° |
| 2026-05-04 13:41 | 43.18842 | 28.57041 | 37009 ft | 450 kts | 126° |
| 2026-05-04 13:41 | 43.14943 | 28.63734 | 37011 ft | 449 kts | 126° |
| 2026-05-04 13:42 | 43.09113 | 28.73710 | 37015 ft | 446 kts | 127° |
| 2026-05-04 13:42 | 43.06866 | 28.76633 | 36982 ft | 451 kts | 145° |
| 2026-05-04 13:42 | 43.04027 | 28.78488 | 37012 ft | 455 kts | 160° |
| 2026-05-04 13:43 | 43.00906 | 28.79237 | 37005 ft | 459 kts | 176° |
| 2026-05-04 13:43 | 42.97699 | 28.79213 | 37017 ft | 460 kts | 179° |
| 2026-05-04 13:43 | 42.91296 | 28.78926 | 37007 ft | 461 kts | 179° |
| 2026-05-04 13:44 | 42.84878 | 28.78652 | 37003 ft | 462 kts | 179° |
| 2026-05-04 13:44 | 42.78442 | 28.78449 | 37021 ft | 463 kts | 179° |
| 2026-05-04 13:45 | 42.71981 | 28.78277 | 37011 ft | 465 kts | 179° |
| 2026-05-04 13:45 | 42.65497 | 28.78109 | 37010 ft | 467 kts | 179° |
| 2026-05-04 13:46 | 42.59025 | 28.77939 | 37002 ft | 469 kts | 179° |
| 2026-05-04 13:46 | 42.52459 | 28.77765 | 37005 ft | 470 kts | 179° |
| 2026-05-04 13:47 | 42.45914 | 28.77591 | 37003 ft | 471 kts | 179° |
| 2026-05-04 13:47 | 42.39399 | 28.77419 | 37008 ft | 471 kts | 179° |
| 2026-05-04 13:48 | 42.32845 | 28.77246 | 37001 ft | 471 kts | 179° |
| 2026-05-04 13:48 | 42.26289 | 28.77074 | 37002 ft | 470 kts | 179° |
| 2026-05-04 13:49 | 42.20855 | 28.76931 | 37003 ft | 470 kts | 179° |
| 2026-05-04 13:49 | 42.14334 | 28.76760 | 37006 ft | 469 kts | 179° |
| 2026-05-04 13:50 | 42.07812 | 28.76590 | 37017 ft | 468 kts | 179° |
| 2026-05-04 13:50 | 42.01303 | 28.76762 | 37015 ft | 467 kts | 175° |
| 2026-05-04 13:51 | 41.94796 | 28.77101 | 37008 ft | 467 kts | 176° |
| 2026-05-04 13:51 | 41.88291 | 28.77361 | 37008 ft | 468 kts | 176° |
| 2026-05-04 13:52 | 41.78520 | 28.77742 | 37009 ft | 469 kts | 176° |
| 2026-05-04 13:53 | 41.71978 | 28.78006 | 37017 ft | 470 kts | 176° |
| 2026-05-04 13:53 | 41.65435 | 28.78276 | 37024 ft | 472 kts | 176° |
| 2026-05-04 13:54 | 41.55574 | 28.78682 | 37019 ft | 473 kts | 176° |
| 2026-05-04 13:55 | 41.45698 | 28.79082 | 37025 ft | 474 kts | 177° |
| 2026-05-04 13:55 | 41.35802 | 28.79434 | 37027 ft | 474 kts | 177° |
| 2026-05-04 13:56 | 41.29191 | 28.79670 | 37025 ft | 475 kts | 177° |
| 2026-05-04 13:57 | 41.20221 | 28.80002 | 37012 ft | 476 kts | 177° |
| 2026-05-04 13:58 | 41.06955 | 28.80612 | 37025 ft | 477 kts | 176° |
| 2026-05-04 13:58 | 40.96990 | 28.81074 | 37017 ft | 477 kts | 175° |
| 2026-05-04 13:59 | 40.90490 | 28.82594 | 37029 ft | 474 kts | 165° |
| 2026-05-04 14:00 | 40.80884 | 28.85582 | 36999 ft | 474 kts | 165° |
| 2026-05-04 14:00 | 40.71199 | 28.88493 | 36983 ft | 474 kts | 166° |
| 2026-05-04 14:01 | 40.64753 | 28.90394 | 36981 ft | 474 kts | 166° |
| 2026-05-04 14:02 | 40.55115 | 28.93230 | 36994 ft | 475 kts | 166° |
| 2026-05-04 14:02 | 40.48664 | 28.95126 | 36992 ft | 476 kts | 166° |
| 2026-05-04 14:03 | 40.42192 | 28.97025 | 36998 ft | 476 kts | 166° |
| 2026-05-04 14:03 | 40.35722 | 28.98920 | 37006 ft | 477 kts | 166° |
| 2026-05-04 14:04 | 40.25982 | 29.01764 | 37009 ft | 478 kts | 166° |
| 2026-05-04 14:04 | 40.19482 | 29.03658 | 37016 ft | 478 kts | 167° |
| 2026-05-04 14:05 | 40.09709 | 29.06498 | 37018 ft | 481 kts | 167° |
| 2026-05-04 14:06 | 40.03172 | 29.08394 | 37014 ft | 482 kts | 166° |
| 2026-05-04 14:06 | 39.96609 | 29.10293 | 37032 ft | 483 kts | 167° |
| 2026-05-04 14:07 | 39.90042 | 29.12189 | 37025 ft | 484 kts | 167° |
| 2026-05-04 14:07 | 39.83512 | 29.14072 | 37023 ft | 483 kts | 167° |
| 2026-05-04 14:08 | 39.76987 | 29.16163 | 37024 ft | 481 kts | 160° |
| 2026-05-04 14:08 | 39.70720 | 29.19227 | 37026 ft | 480 kts | 158° |
| 2026-05-04 14:09 | 39.61423 | 29.23971 | 37040 ft | 478 kts | 158° |
| 2026-05-04 14:10 | 39.52092 | 29.28575 | 37022 ft | 479 kts | 159° |
| 2026-05-04 14:10 | 39.45853 | 29.31620 | 37031 ft | 478 kts | 159° |
| 2026-05-04 14:11 | 39.39627 | 29.34654 | 37046 ft | 478 kts | 159° |
| 2026-05-04 14:11 | 39.30304 | 29.39191 | 37023 ft | 479 kts | 160° |
| 2026-05-04 14:12 | 39.24048 | 29.42229 | 37031 ft | 480 kts | 160° |
| 2026-05-04 14:13 | 39.14650 | 29.46782 | 37024 ft | 481 kts | 160° |
| 2026-05-04 14:13 | 39.08395 | 29.49805 | 37030 ft | 480 kts | 160° |
| 2026-05-04 14:14 | 39.02139 | 29.52823 | 37025 ft | 479 kts | 160° |
| 2026-05-04 14:14 | 38.92756 | 29.57339 | 37034 ft | 480 kts | 160° |
| 2026-05-04 14:15 | 38.80221 | 29.63353 | 37025 ft | 481 kts | 160° |
| 2026-05-04 14:16 | 38.71215 | 29.68912 | 36622 ft | 488 kts | 145° |
| 2026-05-04 14:17 | 38.65684 | 29.73958 | 35470 ft | 488 kts | 143° |
| 2026-05-04 14:17 | 38.62918 | 29.76490 | 34841 ft | 489 kts | 143° |
| 2026-05-04 14:17 | 38.57331 | 29.81500 | 33400 ft | 492 kts | 143° |
| 2026-05-04 14:18 | 38.54518 | 29.83987 | 32686 ft | 492 kts | 143° |
| 2026-05-04 14:18 | 38.48895 | 29.88943 | 31454 ft | 488 kts | 143° |
| 2026-05-04 14:19 | 38.43359 | 29.93824 | 30452 ft | 479 kts | 142° |
| 2026-05-04 14:19 | 38.40626 | 29.96237 | 29937 ft | 475 kts | 142° |
| 2026-05-04 14:19 | 38.37918 | 29.98628 | 29383 ft | 471 kts | 142° |
| 2026-05-04 14:19 | 38.35246 | 30.00987 | 28872 ft | 465 kts | 142° |
| 2026-05-04 14:20 | 38.32593 | 30.03326 | 28377 ft | 461 kts | 142° |
| 2026-05-04 14:20 | 38.29966 | 30.05641 | 27894 ft | 456 kts | 143° |
| 2026-05-04 14:20 | 38.27373 | 30.07923 | 27404 ft | 453 kts | 143° |
| 2026-05-04 14:21 | 38.22235 | 30.12439 | 26450 ft | 445 kts | 143° |
| 2026-05-04 14:21 | 38.19722 | 30.14645 | 25981 ft | 442 kts | 143° |
| 2026-05-04 14:21 | 38.17193 | 30.16863 | 25504 ft | 440 kts | 143° |
| 2026-05-04 14:21 | 38.14683 | 30.19062 | 25039 ft | 437 kts | 144° |
| 2026-05-04 14:22 | 38.12192 | 30.21244 | 24631 ft | 433 kts | 144° |
| 2026-05-04 14:22 | 38.09741 | 30.23388 | 24467 ft | 422 kts | 144° |
| 2026-05-04 14:22 | 38.07345 | 30.25483 | 24286 ft | 413 kts | 144° |
| 2026-05-04 14:22 | 38.05001 | 30.27530 | 24104 ft | 405 kts | 144° |
| 2026-05-04 14:23 | 38.00330 | 30.31279 | 23656 ft | 393 kts | 158° |
| 2026-05-04 14:23 | 37.97788 | 30.32498 | 23301 ft | 389 kts | 161° |
| 2026-05-04 14:23 | 37.95232 | 30.33605 | 22903 ft | 387 kts | 162° |
| 2026-05-04 14:24 | 37.92690 | 30.34688 | 22543 ft | 384 kts | 162° |
| 2026-05-04 14:24 | 37.90175 | 30.35775 | 22194 ft | 381 kts | 162° |
| 2026-05-04 14:24 | 37.87676 | 30.36875 | 21847 ft | 379 kts | 161° |
| 2026-05-04 14:24 | 37.85198 | 30.37982 | 21506 ft | 377 kts | 161° |
| 2026-05-04 14:25 | 37.82726 | 30.39096 | 21161 ft | 375 kts | 161° |
| 2026-05-04 14:25 | 37.77843 | 30.41308 | 20489 ft | 371 kts | 161° |
| 2026-05-04 14:25 | 37.75423 | 30.42407 | 20147 ft | 368 kts | 161° |
| 2026-05-04 14:26 | 37.73017 | 30.43498 | 19821 ft | 366 kts | 162° |
| 2026-05-04 14:26 | 37.70624 | 30.44582 | 19488 ft | 365 kts | 161° |
| 2026-05-04 14:26 | 37.68237 | 30.45663 | 19159 ft | 364 kts | 162° |
| 2026-05-04 14:26 | 37.65857 | 30.46739 | 18822 ft | 362 kts | 162° |
| 2026-05-04 14:27 | 37.63484 | 30.47812 | 18495 ft | 361 kts | 162° |
| 2026-05-04 14:27 | 37.61154 | 30.48865 | 18146 ft | 360 kts | 162° |
| 2026-05-04 14:27 | 37.58802 | 30.49926 | 17764 ft | 358 kts | 162° |
| 2026-05-04 14:27 | 37.56464 | 30.50982 | 17392 ft | 356 kts | 162° |
| 2026-05-04 14:28 | 37.54144 | 30.52028 | 17058 ft | 353 kts | 162° |
| 2026-05-04 14:28 | 37.51837 | 30.53054 | 16722 ft | 350 kts | 165° |
| 2026-05-04 14:28 | 37.49453 | 30.53470 | 16396 ft | 341 kts | 186° |
| 2026-05-04 14:28 | 37.47105 | 30.53315 | 16092 ft | 338 kts | 187° |
| 2026-05-04 14:29 | 37.42425 | 30.53002 | 15436 ft | 334 kts | 186° |
| 2026-05-04 14:29 | 37.37820 | 30.52738 | 14811 ft | 330 kts | 186° |
| 2026-05-04 14:30 | 37.35545 | 30.52618 | 14562 ft | 325 kts | 186° |
| 2026-05-04 14:30 | 37.33286 | 30.52501 | 14270 ft | 323 kts | 186° |
| 2026-05-04 14:30 | 37.28815 | 30.52277 | 13665 ft | 321 kts | 185° |
| 2026-05-04 14:31 | 37.26585 | 30.52205 | 13311 ft | 320 kts | 185° |
| 2026-05-04 14:31 | 37.22150 | 30.52076 | 12666 ft | 316 kts | 184° |
| 2026-05-04 14:32 | 37.17776 | 30.51943 | 12045 ft | 313 kts | 185° |
| 2026-05-04 14:32 | 37.15604 | 30.51875 | 11727 ft | 311 kts | 184° |
| 2026-05-04 14:32 | 37.13447 | 30.51807 | 11460 ft | 309 kts | 184° |
| 2026-05-04 14:32 | 37.11309 | 30.52039 | 11138 ft | 313 kts | 163° |
| 2026-05-04 14:33 | 37.09446 | 30.53366 | 10772 ft | 315 kts | 135° |
| 2026-05-04 14:33 | 37.08123 | 30.55535 | 10309 ft | 315 kts | 115° |
| 2026-05-04 14:33 | 37.07124 | 30.57981 | 9895 ft | 314 kts | 112° |
| 2026-05-04 14:33 | 37.06191 | 30.60365 | 9952 ft | 298 kts | 114° |
| 2026-05-04 14:34 | 37.05583 | 30.61889 | 9841 ft | 294 kts | 114° |
| 2026-05-04 14:34 | 37.04658 | 30.64168 | 9607 ft | 291 kts | 114° |
| 2026-05-04 14:34 | 37.03646 | 30.66316 | 9415 ft | 288 kts | 129° |
| 2026-05-04 14:34 | 37.02044 | 30.67734 | 9241 ft | 280 kts | 161° |
| 2026-05-04 14:35 | 37.00164 | 30.68146 | 8884 ft | 273 kts | 184° |
| 2026-05-04 14:35 | 36.98274 | 30.67956 | 8463 ft | 271 kts | 191° |
| 2026-05-04 14:35 | 36.96416 | 30.67661 | 8135 ft | 267 kts | 191° |
| 2026-05-04 14:35 | 36.94590 | 30.67383 | 7926 ft | 257 kts | 190° |
| 2026-05-04 14:36 | 36.92845 | 30.67133 | 7912 ft | 249 kts | 191° |
| 2026-05-04 14:36 | 36.91149 | 30.66888 | 7934 ft | 249 kts | 189° |
| 2026-05-04 14:36 | 36.89410 | 30.66646 | 7858 ft | 255 kts | 189° |
| 2026-05-04 14:36 | 36.87604 | 30.66397 | 7447 ft | 263 kts | 189° |
| 2026-05-04 14:37 | 36.85786 | 30.66151 | 7074 ft | 262 kts | 189° |
| 2026-05-04 14:37 | 36.83974 | 30.65907 | 6705 ft | 261 kts | 190° |
| 2026-05-04 14:37 | 36.82171 | 30.65663 | 6340 ft | 260 kts | 190° |
| 2026-05-04 14:37 | 36.80373 | 30.65420 | 5940 ft | 259 kts | 189° |
| 2026-05-04 14:38 | 36.78585 | 30.65179 | 5530 ft | 258 kts | 190° |
| 2026-05-04 14:38 | 36.76804 | 30.64939 | 5156 ft | 257 kts | 190° |
| 2026-05-04 14:38 | 36.75029 | 30.64699 | 4785 ft | 256 kts | 190° |
| 2026-05-04 14:38 | 36.73267 | 30.64461 | 4399 ft | 254 kts | 189° |
| 2026-05-04 14:39 | 36.71525 | 30.64227 | 4053 ft | 249 kts | 190° |
| 2026-05-04 14:39 | 36.69826 | 30.63998 | 3686 ft | 241 kts | 188° |
| 2026-05-04 14:39 | 36.68206 | 30.63733 | 3297 ft | 235 kts | 192° |
| 2026-05-04 14:40 | 36.65301 | 30.62305 | 2514 ft | 222 kts | 205° |
| 2026-05-04 14:40 | 36.63815 | 30.62119 | 2323 ft | 209 kts | 165° |
| 2026-05-04 14:40 | 36.62652 | 30.62994 | 2278 ft | 190 kts | 122° |
| 2026-05-04 14:40 | 36.62208 | 30.64451 | 2308 ft | 177 kts | 85° |
| 2026-05-04 14:41 | 36.62488 | 30.65897 | 2288 ft | 171 kts | 53° |
| 2026-05-04 14:41 | 36.63295 | 30.66949 | 2307 ft | 167 kts | 29° |
| 2026-05-04 14:41 | 36.65224 | 30.68589 | 2298 ft | 169 kts | 30° |
| 2026-05-04 14:42 | 36.67175 | 30.70249 | 2303 ft | 169 kts | 30° |
| 2026-05-04 14:42 | 36.68135 | 30.71063 | 2285 ft | 164 kts | 30° |
| 2026-05-04 14:42 | 36.69062 | 30.71852 | 2306 ft | 161 kts | 27° |
| 2026-05-04 14:43 | 36.70000 | 30.72644 | 2316 ft | 165 kts | 27° |
| 2026-05-04 14:43 | 36.70952 | 30.73448 | 2323 ft | 166 kts | 27° |
| 2026-05-04 14:43 | 36.71899 | 30.74251 | 2314 ft | 163 kts | 27° |
| 2026-05-04 14:43 | 36.72832 | 30.75040 | 2305 ft | 161 kts | 27° |
| 2026-05-04 14:44 | 36.73755 | 30.75822 | 2311 ft | 159 kts | 27° |
| 2026-05-04 14:44 | 36.74687 | 30.76609 | 2321 ft | 165 kts | 28° |
| 2026-05-04 14:44 | 36.75692 | 30.77213 | 2311 ft | 156 kts | 3° |
| 2026-05-04 14:44 | 36.76775 | 30.77379 | 2335 ft | 160 kts | 4° |
| 2026-05-04 14:45 | 36.77884 | 30.77580 | 2294 ft | 159 kts | 2° |
| 2026-05-04 14:45 | 36.78965 | 30.77743 | 2141 ft | 155 kts | 1° |
| 2026-05-04 14:45 | 36.80043 | 30.77893 | 1945 ft | 158 kts | 3° |
| 2026-05-04 14:45 | 36.81133 | 30.78044 | 1735 ft | 158 kts | 3° |
| 2026-05-04 14:46 | 36.82205 | 30.78193 | 1521 ft | 153 kts | 3° |
| 2026-05-04 14:46 | 36.83251 | 30.78337 | 1343 ft | 152 kts | 3° |
| 2026-05-04 14:46 | 36.84308 | 30.78483 | 1083 ft | 153 kts | 1° |
| 2026-05-04 14:46 | 36.85360 | 30.78627 | 850 ft | 158 kts | 1° |
| 2026-05-04 14:47 | 36.86460 | 30.78777 | 637 ft | 161 kts | 359° |
| 2026-05-04 14:47 | 36.87563 | 30.78932 | 441 ft | 163 kts | 359° |
| 2026-05-04 14:47 | 36.87950 | 30.78984 | 359 ft | 166 kts | 357° |
| 2026-05-04 14:47 | 36.88400 | 30.79044 | 257 ft | 165 kts | 358° |
| 2026-05-04 14:48 | 36.89399 | 30.79185 | 199 ft | 149 kts | 359° |
| 2026-05-04 14:48 | 36.90201 | 30.79312 | 187 ft | 61 kts | 354° |
| 2026-05-04 14:48 | 36.90313 | 30.79327 | 188 ft | 0 kts | 36° |
| 2026-05-04 14:49 | 36.90323 | 30.79339 | 188 ft | 7 kts | 43° |
| 2026-05-04 14:49 | 36.90390 | 30.79410 | 197 ft | 17 kts | 35° |
| 2026-05-04 14:49 | 36.90478 | 30.79488 | 198 ft | 14 kts | 34° |
| 2026-05-04 14:49 | 36.90593 | 30.79589 | 201 ft | 26 kts | 37° |
| 2026-05-04 14:50 | 36.90719 | 30.79706 | 200 ft | 23 kts | 32° |
| 2026-05-04 14:50 | 36.90885 | 30.79760 | 193 ft | 15 kts | 40° |
| 2026-05-04 14:50 | 36.90936 | 30.79842 | 190 ft | 12 kts | 9° |
| 2026-05-04 14:50 | 36.91035 | 30.79857 | 190 ft | 19 kts | 8° |
| 2026-05-04 14:51 | 36.91194 | 30.79881 | 197 ft | 26 kts | 6° |
| 2026-05-04 14:51 | 36.91259 | 30.79929 | 197 ft | 10 kts | 75° |
| 2026-05-04 14:51 | 36.91251 | 30.80052 | 196 ft | 9 kts | 97° |
| 2026-05-04 14:51 | 36.91250 | 30.80064 | 190 ft | 0 kts | 96° |